TimeCST,TemperatureF,Dew PointF,Humidity,Sea Level PressureIn,VisibilityMPH,Wind Direction,Wind SpeedMPH,Gust SpeedMPH,PrecipitationIn,Events,Conditions,WindDirDegrees,DateUTC
12:15 AM,-0.4,-7.6,72,30.36,10.0,NNE,10.4,-,N/A,,Clear,30,2013-02-20 06:15:00
12:35 AM,-0.4,-9.4,66,30.37,10.0,NNE,8.1,13.8,N/A,,Clear,20,2013-02-20 06:35:00
12:55 AM,-0.4,-7.6,72,30.37,10.0,NNE,6.9,-,N/A,,Clear,20,2013-02-20 06:55:00
1:15 AM,-2.2,-9.4,71,30.37,10.0,NNE,5.8,-,N/A,,Clear,20,2013-02-20 07:15:00
1:35 AM,-2.2,-9.4,71,30.37,10.0,NNE,5.8,-,N/A,,Clear,30,2013-02-20 07:35:00
1:55 AM,-2.2,-9.4,71,30.36,10.0,NNE,10.4,-,N/A,,Clear,30,2013-02-20 07:55:00
2:15 AM,-2.2,-9.4,71,30.36,10.0,NE,10.4,-,N/A,,Clear,40,2013-02-20 08:15:00
2:35 AM,-2.2,-9.4,71,30.35,10.0,NE,8.1,-,N/A,,Clear,40,2013-02-20 08:35:00
2:55 AM,-2.2,-9.4,71,30.36,10.0,NNE,6.9,-,N/A,,Clear,30,2013-02-20 08:55:00
3:15 AM,-2.2,-9.4,71,30.35,10.0,NNE,4.6,-,N/A,,Clear,30,2013-02-20 09:15:00
3:35 AM,-2.2,-9.4,71,30.37,10.0,Calm,Calm,-,N/A,,Clear,0,2013-02-20 09:35:00
3:55 AM,-2.2,-9.4,71,30.35,10.0,NE,8.1,-,N/A,,Clear,40,2013-02-20 09:55:00
4:15 AM,-2.2,-9.4,71,30.35,10.0,NE,8.1,-,N/A,,Clear,50,2013-02-20 10:15:00
4:35 AM,-2.2,-9.4,71,30.37,10.0,Calm,Calm,-,N/A,,Clear,0,2013-02-20 10:35:00
4:55 AM,-4.0,-9.4,78,30.36,10.0,Calm,Calm,-,N/A,,Clear,0,2013-02-20 10:55:00
5:15 AM,-4.0,-9.4,78,30.36,10.0,North,3.5,-,N/A,,Clear,10,2013-02-20 11:15:00
5:35 AM,-4.0,-9.4,78,30.36,10.0,NNE,4.6,-,N/A,,Clear,20,2013-02-20 11:35:00
5:55 AM,-4.0,-9.4,78,30.36,10.0,NNE,4.6,-,N/A,,Clear,20,2013-02-20 11:55:00
6:15 AM,-4.0,-9.4,78,30.36,10.0,NE,6.9,-,N/A,,Clear,50,2013-02-20 12:15:00
6:55 AM,-4.0,-9.4,78,30.34,10.0,NE,8.1,-,N/A,,Clear,50,2013-02-20 12:55:00
7:15 AM,-2.2,-9.4,71,30.35,10.0,NE,6.9,-,N/A,,Clear,50,2013-02-20 13:15:00
7:35 AM,-2.2,-9.4,71,30.34,10.0,NE,11.5,-,N/A,,Clear,50,2013-02-20 13:35:00
7:55 AM,-2.2,-7.6,78,30.33,10.0,ENE,16.1,-,N/A,,Clear,60,2013-02-20 13:55:00
8:15 AM,-0.4,-7.6,72,30.34,10.0,ENE,11.5,-,N/A,,Clear,60,2013-02-20 14:15:00
8:35 AM,1.4,-5.8,72,30.35,10.0,ENE,10.4,-,N/A,,Clear,70,2013-02-20 14:35:00
8:55 AM,3.2,-5.8,66,30.36,10.0,East,10.4,-,N/A,,Clear,90,2013-02-20 14:55:00
9:15 AM,3.2,-4.0,72,30.36,10.0,East,11.5,-,N/A,,Clear,90,2013-02-20 15:15:00
9:35 AM,5.0,-2.2,72,30.37,10.0,ESE,10.4,-,N/A,,Clear,110,2013-02-20 15:35:00
9:55 AM,6.8,-2.2,67,30.37,10.0,SE,8.1,-,N/A,,Clear,130,2013-02-20 15:55:00
10:15 AM,8.6,-2.2,62,30.36,10.0,ESE,5.8,12.7,N/A,,Clear,110,2013-02-20 16:15:00
10:35 AM,10.4,-0.4,62,30.35,10.0,East,6.9,-,N/A,,Clear,100,2013-02-20 16:35:00
10:55 AM,10.4,-0.4,62,30.35,10.0,ESE,8.1,-,N/A,,Clear,120,2013-02-20 16:55:00
11:15 AM,12.2,-0.4,57,30.34,10.0,East,11.5,-,N/A,,Clear,90,2013-02-20 17:15:00
11:35 AM,14.0,-0.4,53,30.35,10.0,ESE,11.5,-,N/A,,Clear,120,2013-02-20 17:35:00
11:55 AM,14.0,1.4,57,30.35,10.0,ESE,11.5,-,N/A,,Clear,110,2013-02-20 17:55:00
12:15 PM,15.8,-0.4,49,30.36,10.0,ESE,11.5,-,N/A,,Clear,110,2013-02-20 18:15:00
12:35 PM,17.6,1.4,49,30.35,10.0,ESE,9.2,17.3,N/A,,Clear,120,2013-02-20 18:35:00
12:55 PM,19.4,1.4,46,30.34,10.0,ESE,12.7,-,N/A,,Clear,120,2013-02-20 18:55:00
1:15 PM,19.4,1.4,46,30.33,10.0,SE,9.2,16.1,N/A,,Clear,130,2013-02-20 19:15:00
1:35 PM,21.2,1.4,42,30.30,10.0,SE,11.5,-,N/A,,Clear,130,2013-02-20 19:35:00
1:55 PM,21.2,1.4,42,30.29,10.0,ESE,10.4,-,N/A,,Clear,110,2013-02-20 19:55:00
2:15 PM,21.2,1.4,42,30.28,10.0,East,11.5,-,N/A,,Clear,100,2013-02-20 20:15:00
2:35 PM,21.2,1.4,42,30.29,10.0,ESE,9.2,16.1,N/A,,Clear,110,2013-02-20 20:35:00
2:55 PM,23.0,1.4,39,30.29,10.0,ESE,6.9,13.8,N/A,,Clear,110,2013-02-20 20:55:00
3:15 PM,23.0,1.4,39,30.28,10.0,ESE,8.1,15.0,N/A,,Clear,110,2013-02-20 21:15:00
3:35 PM,23.0,1.4,39,30.28,10.0,ESE,10.4,-,N/A,,Clear,120,2013-02-20 21:35:00
3:55 PM,23.0,1.4,39,30.28,10.0,SE,11.5,-,N/A,,Clear,130,2013-02-20 21:55:00
4:15 PM,23.0,3.2,43,30.27,10.0,ESE,13.8,-,N/A,,Clear,110,2013-02-20 22:15:00
4:35 PM,23.0,3.2,43,30.27,10.0,ESE,12.7,-,N/A,,Clear,120,2013-02-20 22:35:00
4:55 PM,23.0,3.2,43,30.25,10.0,East,13.8,-,N/A,,Clear,100,2013-02-20 22:55:00
5:15 PM,23.0,3.2,43,30.25,10.0,East,13.8,-,N/A,,Clear,90,2013-02-20 23:15:00
5:35 PM,21.2,5.0,50,30.24,10.0,East,15.0,-,N/A,,Clear,90,2013-02-20 23:35:00
5:55 PM,21.2,5.0,50,30.24,10.0,East,13.8,-,N/A,,Scattered Clouds,90,2013-02-20 23:55:00
6:15 PM,21.2,5.0,50,30.24,10.0,East,10.4,-,N/A,,Mostly Cloudy,80,2013-02-21 00:15:00
6:35 PM,19.4,5.0,54,30.24,10.0,East,12.7,-,N/A,,Overcast,90,2013-02-21 00:35:00
6:55 PM,19.4,5.0,54,30.24,10.0,East,11.5,18.4,N/A,,Overcast,100,2013-02-21 00:55:00
7:15 PM,19.4,5.0,54,30.24,10.0,East,12.7,-,N/A,,Overcast,90,2013-02-21 01:15:00
7:35 PM,19.4,6.8,58,30.24,10.0,East,16.1,-,N/A,,Mostly Cloudy,90,2013-02-21 01:35:00
7:55 PM,17.6,6.8,63,30.25,10.0,East,13.8,19.6,N/A,,Mostly Cloudy,90,2013-02-21 01:55:00
8:15 PM,17.6,6.8,63,30.24,10.0,East,12.7,19.6,N/A,,Overcast,90,2013-02-21 02:15:00
8:35 PM,17.6,6.8,63,30.24,10.0,East,12.7,-,N/A,,Overcast,90,2013-02-21 02:35:00
8:55 PM,15.8,6.8,68,30.25,10.0,East,12.7,-,N/A,,Overcast,90,2013-02-21 02:55:00
9:15 PM,15.8,6.8,68,30.25,10.0,East,13.8,-,N/A,,Overcast,100,2013-02-21 03:15:00
9:35 PM,15.8,6.8,68,30.25,10.0,East,11.5,-,N/A,,Overcast,90,2013-02-21 03:35:00
9:55 PM,15.8,8.6,73,30.25,10.0,East,13.8,-,N/A,,Overcast,90,2013-02-21 03:55:00
10:35 PM,14.0,8.6,79,30.25,10.0,East,12.7,19.6,N/A,,Overcast,90,2013-02-21 04:35:00
10:55 PM,14.0,8.6,79,30.25,10.0,East,13.8,-,N/A,,Overcast,90,2013-02-21 04:55:00
11:15 PM,14.0,8.6,79,30.25,10.0,East,12.7,-,N/A,,Overcast,90,2013-02-21 05:15:00
11:35 PM,14.0,8.6,79,30.26,10.0,East,11.5,-,N/A,,Overcast,90,2013-02-21 05:35:00
11:55 PM,14.0,8.6,79,30.26,10.0,East,11.5,-,N/A,,Overcast,90,2013-02-21 05:55:00